createdAt,value
2023-08-05T00:01:45.475Z,6.25
2023-08-05T00:04:12.054Z,11.23
2023-08-05T00:06:38.620Z,6.53
2023-08-05T00:09:05.174Z,10.05
2023-08-05T00:11:31.805Z,12.65
2023-08-05T00:13:58.390Z,4.88
2023-08-05T00:16:24.963Z,4.75
2023-08-05T00:18:51.549Z,7.90
2023-08-05T00:21:18.837Z,9.45
2023-08-05T00:23:45.501Z,5.75
2023-08-05T00:26:12.617Z,7.95
2023-08-05T00:28:39.320Z,8.30
2023-08-05T00:31:10.173Z,14.45
2023-08-05T00:33:36.790Z,10.13
2023-08-05T00:36:03.474Z,8.00
2023-08-05T00:38:30.047Z,10.05
2023-08-05T00:40:56.591Z,7.88
2023-08-05T00:43:23.160Z,11.43
2023-08-05T00:45:50.116Z,16.60
2023-08-05T00:48:16.684Z,10.20
2023-08-05T00:50:43.290Z,9.23
2023-08-05T00:53:09.973Z,5.65
2023-08-05T00:55:36.588Z,6.22
2023-08-05T00:58:03.191Z,3.85
2023-08-05T01:00:29.757Z,7.35
2023-08-05T01:02:56.380Z,8.90
2023-08-05T01:05:24.675Z,7.40
2023-08-05T01:07:51.987Z,9.73
2023-08-05T01:10:18.698Z,8.00
2023-08-05T01:12:45.397Z,9.50
2023-08-05T01:15:11.964Z,10.85
2023-08-05T01:17:39.076Z,12.80
2023-08-05T01:20:07.437Z,13.30
2023-08-05T01:22:41.275Z,11.02
2023-08-05T01:25:29.174Z,8.88
2023-08-05T01:28:00.774Z,13.95
2023-08-05T01:30:28.328Z,8.95
2023-08-05T01:32:55.534Z,12.48
2023-08-05T01:35:23.269Z,10.82
2023-08-05T01:37:49.999Z,10.35
2023-08-05T01:40:17.086Z,19.52
2023-08-05T01:42:43.665Z,19.02
2023-08-05T01:45:10.403Z,13.77
2023-08-05T01:47:37.087Z,11.27
2023-08-05T01:50:04.002Z,12.45
2023-08-05T01:52:30.552Z,17.40
2023-08-05T01:54:57.154Z,18.02
2023-08-05T01:57:23.768Z,15.90
2023-08-05T01:59:50.384Z,12.45
2023-08-05T02:02:17.034Z,17.65
2023-08-05T02:04:43.678Z,17.23
2023-08-05T02:07:10.245Z,20.88
2023-08-05T02:09:36.791Z,15.00
2023-08-05T02:12:03.521Z,11.13
2023-08-05T02:14:30.055Z,10.55
2023-08-05T02:16:56.703Z,13.20
2023-08-05T02:19:23.345Z,21.67
2023-08-05T02:21:49.942Z,23.65
2023-08-05T02:24:16.502Z,39.33
2023-08-05T02:26:43.097Z,42.80
2023-08-05T02:29:09.692Z,30.80
2023-08-05T02:31:36.362Z,56.38
2023-08-05T02:34:02.960Z,58.78
2023-08-05T02:36:29.558Z,61.33
2023-08-05T02:38:56.091Z,37.78
2023-08-05T02:41:22.668Z,26.02
2023-08-05T02:43:49.287Z,17.02
2023-08-05T02:46:15.922Z,30.35
2023-08-05T02:48:42.545Z,15.73
2023-08-05T02:51:09.127Z,19.20
2023-08-05T02:53:41.950Z,20.90
2023-08-05T02:56:08.712Z,17.45
2023-08-05T02:58:35.349Z,26.80
2023-08-05T03:01:09.718Z,14.48
2023-08-05T03:03:37.631Z,16.52
2023-08-05T03:06:04.657Z,23.63
2023-08-05T03:08:31.325Z,31.67
2023-08-05T03:11:01.730Z,45.05
2023-08-05T03:13:28.507Z,78.03
2023-08-05T03:15:55.276Z,51.60
2023-08-05T03:18:22.260Z,28.67
2023-08-05T03:20:49.530Z,44.45
2023-08-05T03:23:16.158Z,41.25
2023-08-05T03:25:42.720Z,26.63
2023-08-05T03:28:09.300Z,70.18
2023-08-05T03:30:35.984Z,36.38
2023-08-05T03:33:02.607Z,51.47
2023-08-05T03:35:29.229Z,22.58
2023-08-05T03:37:55.888Z,29.60
2023-08-05T03:40:22.533Z,9.57
2023-08-05T03:42:49.084Z,11.80
2023-08-05T03:45:15.721Z,18.25
2023-08-05T03:47:43.593Z,9.63
2023-08-05T03:50:10.452Z,20.42
2023-08-05T03:52:38.498Z,6.72
2023-08-05T03:55:07.027Z,15.07
2023-08-05T03:57:33.576Z,28.45
2023-08-05T04:00:00.250Z,15.32
2023-08-05T04:02:27.688Z,13.68
2023-08-05T04:04:54.402Z,9.98
2023-08-05T04:07:21.018Z,16.33
2023-08-05T04:09:52.833Z,33.45
2023-08-05T04:12:19.498Z,45.58
2023-08-05T04:14:46.121Z,13.02
2023-08-05T04:17:15.912Z,8.23
2023-08-05T04:19:43.350Z,38.15
2023-08-05T04:22:10.121Z,14.43
2023-08-05T04:24:37.860Z,16.58
2023-08-05T04:27:05.028Z,17.48
2023-08-05T04:29:31.693Z,16.05
2023-08-05T04:31:58.450Z,26.35
2023-08-05T04:34:25.093Z,25.80
2023-08-05T04:36:54.114Z,14.30
2023-08-05T04:39:21.392Z,56.70
2023-08-05T04:41:48.144Z,52.78
